createdAt,value
2022-12-27T00:00:14.409Z,1.25
2022-12-27T00:02:41.699Z,1.30
2022-12-27T00:05:09.533Z,1.60
2022-12-27T00:07:37.324Z,1.55
2022-12-27T00:10:05.906Z,1.40
2022-12-27T00:12:33.161Z,1.15
2022-12-27T00:15:00.397Z,1.10
2022-12-27T00:17:27.995Z,1.13
2022-12-27T00:19:55.213Z,1.10
2022-12-27T00:22:22.433Z,1.20
2022-12-27T00:24:50.817Z,1.30
2022-12-27T00:27:18.000Z,1.20
2022-12-27T00:29:45.202Z,1.15
2022-12-27T00:32:12.404Z,1.40
2022-12-27T00:34:39.616Z,1.10
2022-12-27T00:37:07.351Z,1.23
2022-12-27T00:39:34.517Z,1.17
2022-12-27T00:42:01.736Z,1.27
2022-12-27T00:44:28.940Z,1.55
2022-12-27T00:46:56.116Z,1.80
2022-12-27T00:49:23.297Z,1.40
2022-12-27T00:51:50.663Z,1.58
2022-12-27T00:54:17.848Z,1.27
2022-12-27T00:56:45.057Z,1.10
2022-12-27T00:59:12.324Z,1.08
2022-12-27T01:01:40.808Z,1.30
2022-12-27T01:04:08.293Z,1.38
2022-12-27T01:06:35.576Z,1.38
2022-12-27T01:09:03.726Z,1.88
2022-12-27T01:11:31.161Z,1.40
2022-12-27T01:13:59.525Z,1.48
2022-12-27T01:16:27.595Z,1.48
2022-12-27T01:18:55.164Z,1.52
2022-12-27T01:21:23.248Z,1.60
2022-12-27T01:23:50.541Z,1.40
2022-12-27T01:26:20.802Z,1.48
2022-12-27T01:28:48.230Z,1.70
2022-12-27T01:31:17.714Z,1.40
2022-12-27T01:33:45.043Z,1.50
2022-12-27T01:36:17.352Z,1.35
2022-12-27T01:38:44.644Z,1.27
2022-12-27T01:41:33.238Z,1.45
2022-12-27T01:44:00.456Z,1.25
2022-12-27T01:46:27.936Z,1.50
2022-12-27T01:48:55.299Z,1.73
2022-12-27T01:51:22.540Z,1.40
2022-12-27T01:53:49.818Z,1.48
2022-12-27T01:56:28.903Z,1.55
2022-12-27T01:58:59.335Z,1.73
2022-12-27T02:01:34.484Z,1.50
2022-12-27T02:04:04.319Z,1.73
2022-12-27T02:06:31.865Z,1.45
2022-12-27T02:09:34.276Z,1.55
2022-12-27T02:12:02.013Z,1.55
2022-12-27T02:14:33.341Z,1.40
2022-12-27T02:17:08.154Z,1.60
2022-12-27T02:19:41.409Z,1.63
2022-12-27T02:23:05.094Z,1.55
2022-12-27T02:25:50.940Z,1.58
2022-12-27T02:28:33.233Z,1.80
2022-12-27T02:31:05.140Z,1.52
2022-12-27T02:33:34.325Z,1.40
2022-12-27T02:36:04.132Z,1.67
2022-12-27T02:38:33.004Z,1.42
2022-12-27T02:41:19.065Z,1.85
2022-12-27T02:44:05.183Z,1.70
2022-12-27T02:46:51.404Z,1.50
2022-12-27T02:49:53.464Z,1.50
2022-12-27T02:53:03.729Z,2.10
2022-12-27T02:56:08.248Z,1.58
2022-12-27T02:58:48.324Z,1.80
2022-12-27T03:02:03.846Z,1.40
2022-12-27T03:04:44.838Z,1.20
2022-12-27T03:07:15.044Z,1.40
2022-12-27T03:10:04.122Z,1.67
2022-12-27T03:13:03.950Z,1.42
2022-12-27T03:15:55.046Z,1.70
2022-12-27T03:18:31.289Z,1.98
2022-12-27T03:21:17.455Z,1.77
2022-12-27T03:24:03.945Z,1.90
2022-12-27T03:26:32.692Z,1.90
2022-12-27T03:29:18.824Z,1.77
2022-12-27T03:32:06.140Z,1.80
2022-12-27T03:34:40.691Z,1.55
2022-12-27T03:37:31.398Z,1.88
2022-12-27T03:40:07.862Z,1.90
2022-12-27T03:43:00.200Z,2.05
2022-12-27T03:45:50.900Z,1.70
2022-12-27T03:48:20.259Z,2.00
2022-12-27T03:50:51.080Z,1.95
2022-12-27T03:53:29.678Z,1.55
2022-12-27T03:55:56.920Z,1.95
2022-12-27T03:58:24.137Z,1.88
2022-12-27T04:00:51.355Z,1.70
2022-12-27T04:03:18.621Z,1.95
2022-12-27T04:05:45.896Z,1.70
2022-12-27T04:08:31.796Z,1.80
2022-12-27T04:11:17.709Z,1.58
2022-12-27T04:14:03.432Z,1.80
2022-12-27T04:16:49.024Z,1.70
2022-12-27T04:19:34.726Z,1.73
2022-12-27T04:22:20.598Z,1.70
2022-12-27T04:25:06.664Z,1.90
2022-12-27T04:27:52.692Z,1.67
2022-12-27T04:30:40.050Z,2.55
2022-12-27T04:33:25.741Z,2.08
2022-12-27T04:35:52.949Z,2.10
2022-12-27T04:38:20.178Z,2.20
2022-12-27T04:41:05.795Z,2.28
2022-12-27T04:43:52.263Z,2.08
2022-12-27T04:46:40.830Z,1.90
2022-12-27T04:49:33.595Z,2.05
2022-12-27T04:52:20.043Z,2.10
2022-12-27T04:54:59.275Z,2.08
2022-12-27T04:57:26.950Z,1.77
2022-12-27T05:00:12.849Z,1.88
2022-12-27T05:02:40.272Z,1.67
2022-12-27T05:05:08.095Z,1.90
2022-12-27T05:07:54.075Z,2.30
2022-12-27T05:10:40.225Z,1.35
2022-12-27T05:13:31.501Z,1.80
2022-12-27T05:15:58.756Z,1.52
2022-12-27T05:18:26.180Z,1.20
2022-12-27T05:20:53.408Z,1.60
2022-12-27T05:23:38.987Z,1.58
2022-12-27T05:26:06.192Z,1.42
2022-12-27T05:28:33.416Z,1.45
2022-12-27T05:31:02.536Z,1.55
2022-12-27T05:33:31.623Z,1.50
2022-12-27T05:35:59.839Z,1.40
2022-12-27T05:38:27.186Z,1.40
2022-12-27T05:40:59.450Z,1.65
2022-12-27T05:43:27.145Z,1.65
2022-12-27T05:45:54.544Z,1.33
2022-12-27T05:48:23.024Z,1.80
2022-12-27T05:50:50.247Z,1.65
2022-12-27T05:53:17.445Z,9.13
2022-12-27T05:55:44.652Z,2.50
2022-12-27T05:58:11.892Z,1.60
2022-12-27T06:00:39.126Z,2.00
2022-12-27T06:03:06.372Z,2.00
2022-12-27T06:05:33.704Z,2.05
2022-12-27T06:08:01.211Z,1.80
2022-12-27T06:10:28.431Z,1.80
2022-12-27T06:12:55.606Z,1.90
2022-12-27T06:15:22.785Z,1.95
2022-12-27T06:17:49.957Z,2.10
2022-12-27T06:20:17.535Z,2.25
2022-12-27T06:22:45.068Z,2.28
2022-12-27T06:25:14.274Z,2.20
2022-12-27T06:27:41.966Z,2.20
2022-12-27T06:30:12.094Z,2.25
2022-12-27T06:32:39.303Z,2.22
2022-12-27T06:35:06.958Z,2.08
2022-12-27T06:37:34.150Z,1.98
2022-12-27T06:40:01.353Z,2.42
2022-12-27T06:42:30.024Z,2.28
2022-12-27T06:44:57.208Z,2.05
2022-12-27T06:47:24.389Z,2.22
2022-12-27T06:49:51.603Z,2.20
2022-12-27T06:52:18.846Z,2.63
2022-12-27T06:54:46.119Z,2.45
2022-12-27T06:57:13.291Z,2.30
2022-12-27T06:59:40.461Z,2.30
2022-12-27T07:02:08.986Z,2.20
2022-12-27T07:04:36.243Z,2.10
2022-12-27T07:07:03.432Z,2.40
2022-12-27T07:09:30.608Z,2.38
2022-12-27T07:11:57.767Z,2.20
2022-12-27T07:14:25.024Z,2.20
2022-12-27T07:16:52.296Z,2.40
2022-12-27T07:19:19.492Z,2.10
2022-12-27T07:21:46.939Z,2.08
2022-12-27T07:24:14.153Z,1.88
2022-12-27T07:26:41.328Z,2.20
2022-12-27T07:29:09.468Z,2.03
2022-12-27T07:31:36.653Z,2.20
2022-12-27T07:34:05.057Z,1.92
2022-12-27T07:36:34.552Z,2.25
2022-12-27T07:39:01.953Z,2.58
2022-12-27T07:41:29.243Z,2.28
2022-12-27T07:43:56.503Z,2.72
2022-12-27T07:46:25.230Z,2.80
2022-12-27T07:48:56.535Z,2.70
2022-12-27T07:51:23.959Z,2.65
2022-12-27T07:53:51.489Z,3.20
2022-12-27T07:56:26.169Z,3.58
2022-12-27T07:58:54.866Z,3.35
2022-12-27T08:01:22.806Z,3.00
2022-12-27T08:03:50.114Z,3.13
2022-12-27T08:06:29.447Z,3.28
2022-12-27T08:08:58.093Z,2.80
2022-12-27T08:11:26.681Z,2.72
2022-12-27T08:13:54.089Z,2.80
2022-12-27T08:16:23.196Z,2.58
2022-12-27T08:18:50.500Z,2.65
2022-12-27T08:21:17.775Z,2.20
2022-12-27T08:23:45.110Z,2.00
2022-12-27T08:26:12.363Z,2.10
2022-12-27T08:28:39.553Z,2.00
2022-12-27T08:31:08.285Z,2.10
2022-12-27T08:33:35.998Z,1.90
2022-12-27T08:36:53.418Z,2.00
2022-12-27T08:38:55.473Z,1.75
2022-12-27T08:41:22.910Z,1.60
2022-12-27T08:43:50.167Z,1.88
2022-12-27T08:46:19.344Z,1.60
2022-12-27T08:48:50.093Z,1.90
2022-12-27T08:51:27.263Z,1.88
2022-12-27T08:53:58.769Z,1.95
2022-12-27T08:56:26.321Z,1.75
2022-12-27T08:58:53.595Z,1.75
2022-12-27T09:01:20.886Z,2.05
2022-12-27T09:03:48.270Z,2.00
2022-12-27T09:06:20.558Z,2.17
2022-12-27T09:08:48.321Z,2.20
2022-12-27T09:11:20.132Z,2.60
2022-12-27T09:13:47.377Z,2.17
2022-12-27T09:16:16.539Z,2.10
2022-12-27T09:18:43.933Z,1.83
2022-12-27T09:21:13.132Z,2.20
2022-12-27T09:23:40.691Z,2.10
2022-12-27T09:26:09.161Z,1.70
2022-12-27T09:28:36.413Z,1.80
2022-12-27T09:31:03.759Z,1.60
2022-12-27T09:33:31.128Z,1.40
2022-12-27T09:36:06.227Z,1.92
2022-12-27T09:38:33.475Z,1.50
2022-12-27T09:41:01.884Z,1.77
2022-12-27T09:44:07.040Z,1.17
2022-12-27T09:46:46.245Z,1.02
2022-12-27T09:49:14.957Z,1.50
2022-12-27T09:51:53.913Z,1.48
2022-12-27T09:54:27.113Z,1.35
2022-12-27T09:57:18.829Z,1.67
2022-12-27T09:59:44.847Z,1.58
2022-12-27T10:02:38.914Z,1.52
2022-12-27T10:05:23.087Z,1.67
2022-12-27T10:07:56.680Z,1.15
2022-12-27T10:10:45.733Z,1.40
2022-12-27T10:13:37.760Z,1.42
2022-12-27T10:16:17.679Z,1.60
2022-12-27T10:19:03.777Z,1.30
2022-12-27T10:21:31.096Z,1.20
2022-12-27T10:24:02.315Z,1.48
2022-12-27T10:26:29.505Z,1.38
2022-12-27T10:28:59.464Z,1.13
2022-12-27T10:31:26.868Z,1.30
2022-12-27T10:33:54.134Z,1.10
2022-12-27T10:36:23.874Z,1.35
2022-12-27T10:38:51.116Z,1.02
2022-12-27T10:41:27.200Z,1.10
2022-12-27T10:43:54.881Z,1.00
2022-12-27T10:46:28.946Z,1.30
2022-12-27T10:49:31.692Z,1.15
2022-12-27T10:51:49.428Z,1.27
2022-12-27T10:54:24.912Z,1.15
2022-12-27T10:56:52.399Z,1.10
2022-12-27T10:59:24.372Z,1.17
2022-12-27T11:02:01.614Z,1.27
2022-12-27T11:04:30.426Z,1.13
2022-12-27T11:07:04.474Z,1.10
2022-12-27T11:09:37.929Z,1.40
2022-12-27T11:12:13.908Z,1.40
2022-12-27T11:15:08.620Z,1.33
2022-12-27T11:17:37.323Z,1.10
2022-12-27T11:20:19.845Z,1.73
2022-12-27T11:22:51.572Z,1.30
2022-12-27T11:25:18.838Z,1.17
2022-12-27T11:27:54.638Z,1.20
2022-12-27T11:30:25.824Z,1.13
2022-12-27T11:32:53.142Z,1.00
2022-12-27T11:35:21.368Z,1.55
2022-12-27T11:37:49.186Z,1.42
2022-12-27T11:40:34.717Z,1.15
2022-12-27T11:43:12.075Z,1.40
2022-12-27T11:45:44.419Z,1.50
2022-12-27T11:48:11.593Z,1.80
2022-12-27T11:51:06.255Z,1.48
2022-12-27T11:53:56.210Z,1.45
2022-12-27T11:56:27.158Z,1.85
2022-12-27T11:59:23.708Z,1.55
2022-12-27T12:02:06.514Z,1.80
2022-12-27T12:04:52.275Z,1.70
2022-12-27T12:07:19.515Z,1.88
2022-12-27T12:10:20.567Z,1.70
2022-12-27T12:13:12.067Z,1.60
2022-12-27T12:16:03.741Z,1.50
2022-12-27T12:18:52.886Z,1.52
2022-12-27T12:21:25.064Z,1.58
2022-12-27T12:24:06.719Z,1.35
2022-12-27T12:26:59.548Z,1.35
2022-12-27T12:29:33.008Z,1.70
2022-12-27T12:32:37.427Z,1.50
2022-12-27T12:35:19.034Z,1.60
2022-12-27T12:38:05.218Z,1.92
2022-12-27T12:41:03.395Z,1.77
2022-12-27T12:43:59.446Z,2.05
2022-12-27T12:46:26.698Z,1.35
2022-12-27T12:49:21.603Z,1.70
2022-12-27T12:52:11.900Z,1.40
2022-12-27T12:55:03.339Z,2.20
2022-12-27T12:57:40.127Z,3.05
2022-12-27T13:00:22.475Z,3.47
2022-12-27T13:03:15.992Z,2.38
2022-12-27T13:05:52.106Z,1.75
2022-12-27T13:09:07.077Z,2.30
2022-12-27T13:11:56.319Z,1.67
2022-12-27T13:14:45.406Z,1.60
2022-12-27T13:17:29.122Z,1.50
2022-12-27T13:20:41.626Z,1.70
2022-12-27T13:23:27.059Z,1.73
2022-12-27T13:26:01.325Z,1.58
2022-12-27T13:28:44.400Z,1.95
2022-12-27T13:31:23.885Z,2.03
2022-12-27T13:34:13.555Z,1.55
2022-12-27T13:36:49.571Z,1.70
2022-12-27T13:39:40.442Z,1.65
2022-12-27T13:42:29.206Z,1.85
2022-12-27T13:45:03.796Z,2.22
2022-12-27T13:47:52.345Z,1.63
2022-12-27T13:50:56.841Z,1.92
2022-12-27T13:53:29.801Z,1.83
2022-12-27T13:59:23.947Z,2.10
2022-12-27T14:02:03.172Z,2.00
2022-12-27T14:04:59.503Z,1.83
2022-12-27T14:07:57.934Z,2.00
2022-12-27T14:10:42.706Z,1.70
2022-12-27T14:13:13.388Z,1.70
2022-12-27T14:15:46.425Z,2.00
2022-12-27T14:18:36.360Z,2.22
2022-12-27T14:21:15.923Z,1.80
2022-12-27T14:23:49.123Z,1.92
2022-12-27T14:26:19.451Z,2.08
2022-12-27T14:29:20.150Z,1.67
2022-12-27T14:32:14.820Z,1.90
2022-12-27T14:34:41.996Z,1.52
2022-12-27T14:37:15.877Z,2.00
2022-12-27T14:40:01.644Z,1.40
2022-12-27T14:42:50.445Z,1.80
2022-12-27T14:45:57.728Z,1.90
2022-12-27T14:48:34.691Z,2.15
2022-12-27T14:54:16.806Z,2.10
2022-12-27T14:56:55.471Z,1.70
2022-12-27T14:59:35.720Z,1.70
2022-12-27T15:02:05.830Z,2.05
2022-12-27T15:04:58.456Z,1.90
2022-12-27T15:07:46.774Z,2.20
2022-12-27T15:10:33.856Z,2.00
2022-12-27T15:13:13.715Z,2.05
2022-12-27T15:16:18.323Z,2.03
2022-12-27T15:19:08.994Z,1.90
2022-12-27T15:21:47.757Z,2.00
2022-12-27T15:24:34.552Z,2.10
2022-12-27T15:27:08.448Z,2.20
2022-12-27T15:30:02.944Z,1.60
2022-12-27T15:32:57.734Z,1.83
2022-12-27T15:35:30.670Z,2.00
2022-12-27T15:38:18.716Z,2.78
2022-12-27T15:41:08.314Z,2.20
2022-12-27T15:43:57.062Z,2.65
2022-12-27T15:46:57.886Z,2.17
2022-12-27T15:49:36.723Z,2.92
2022-12-27T15:52:59.378Z,3.92
2022-12-27T15:55:55.419Z,4.10
2022-12-27T15:58:23.832Z,3.85
2022-12-27T16:01:21.820Z,4.78
2022-12-27T16:03:53.011Z,3.85
2022-12-27T16:06:35.631Z,5.72
2022-12-27T16:09:20.993Z,4.07
2022-12-27T16:12:00.426Z,4.40
2022-12-27T16:14:30.660Z,3.60
2022-12-27T16:17:22.869Z,4.15
2022-12-27T16:19:59.069Z,4.53
2022-12-27T16:22:49.388Z,4.50
2022-12-27T16:25:39.567Z,4.45
2022-12-27T16:28:15.697Z,5.50
2022-12-27T16:30:52.893Z,4.97
2022-12-27T16:33:26.096Z,5.38
2022-12-27T16:36:11.531Z,4.68
2022-12-27T16:38:39.755Z,6.18
2022-12-27T16:41:32.627Z,6.15
2022-12-27T16:43:59.796Z,6.38
2022-12-27T16:46:54.402Z,6.50
2022-12-27T16:49:55.701Z,6.07
2022-12-27T16:52:28.887Z,7.38
2022-12-27T16:55:41.280Z,6.05
2022-12-27T16:58:23.128Z,6.57
2022-12-27T17:00:51.803Z,7.40
2022-12-27T17:03:21.823Z,6.10
2022-12-27T17:06:21.649Z,16.52
2022-12-27T17:08:36.971Z,22.05
2022-12-27T17:11:29.464Z,26.75
2022-12-27T17:14:07.723Z,14.73
2022-12-27T17:16:43.368Z,8.70
2022-12-27T17:19:30.908Z,6.80
2022-12-27T17:22:02.718Z,5.97
2022-12-27T17:24:30.185Z,6.25
2022-12-27T17:27:17.647Z,6.20
2022-12-27T17:30:06.923Z,6.40
2022-12-27T17:32:55.477Z,6.80
2022-12-27T17:35:44.188Z,6.47
2022-12-27T17:38:23.361Z,6.30
2022-12-27T17:40:53.652Z,6.68
2022-12-27T17:43:58.837Z,6.40
2022-12-27T17:46:55.183Z,5.43
2022-12-27T17:49:29.974Z,6.40
2022-12-27T17:52:16.062Z,6.47
2022-12-27T17:55:01.816Z,6.78
2022-12-27T17:57:47.780Z,6.75
2022-12-27T18:00:25.732Z,5.55
2022-12-27T18:02:53.748Z,5.75
2022-12-27T18:05:27.567Z,5.80
2022-12-27T18:08:05.056Z,5.22
2022-12-27T18:10:34.300Z,7.50
2022-12-27T18:13:03.298Z,7.32
2022-12-27T18:15:34.598Z,7.85
2022-12-27T18:18:03.319Z,6.57
2022-12-27T18:20:34.421Z,6.00
2022-12-27T18:23:01.576Z,5.57
2022-12-27T18:25:43.136Z,5.72
2022-12-27T18:28:19.661Z,5.82
2022-12-27T18:30:53.183Z,6.45
2022-12-27T18:33:32.308Z,6.05
2022-12-27T18:36:00.811Z,5.97
2022-12-27T18:38:38.849Z,5.75
2022-12-27T18:41:08.541Z,6.30
2022-12-27T18:43:35.782Z,5.50
2022-12-27T18:46:03.394Z,6.05
2022-12-27T18:48:33.988Z,6.13
2022-12-27T18:51:02.782Z,5.63
2022-12-27T18:53:31.814Z,5.75
2022-12-27T18:56:15.801Z,5.80
2022-12-27T18:59:12.736Z,4.00
2022-12-27T19:01:41.735Z,5.97
2022-12-27T19:04:16.935Z,5.78
2022-12-27T19:07:06.140Z,5.97
2022-12-27T19:09:43.140Z,6.03
2022-12-27T19:12:22.426Z,5.95
2022-12-27T19:14:49.638Z,6.90
2022-12-27T19:17:22.563Z,6.95
2022-12-27T19:19:54.309Z,6.93
2022-12-27T19:22:43.689Z,6.13
2022-12-27T19:25:27.276Z,7.25
2022-12-27T19:28:09.589Z,6.15
2022-12-27T19:30:42.387Z,6.88
2022-12-27T19:33:22.594Z,8.27
2022-12-27T19:35:49.808Z,7.53
2022-12-27T19:38:24.239Z,7.90
2022-12-27T19:40:56.646Z,8.00
2022-12-27T19:43:27.149Z,7.80
2022-12-27T19:45:54.376Z,7.97
2022-12-27T19:48:21.701Z,8.23
2022-12-27T19:50:50.280Z,8.13
2022-12-27T19:53:22.578Z,7.43
2022-12-27T19:55:49.937Z,8.23
2022-12-27T19:58:26.980Z,7.38
2022-12-27T20:00:54.236Z,7.53
2022-12-27T20:03:21.451Z,9.23
2022-12-27T20:06:13.692Z,7.65
2022-12-27T20:08:42.997Z,8.45
2022-12-27T20:11:20.825Z,8.52
2022-12-27T20:13:48.189Z,8.23
2022-12-27T20:16:17.158Z,8.23
2022-12-27T20:19:03.384Z,8.00
2022-12-27T20:21:30.623Z,7.90
2022-12-27T20:23:57.799Z,8.95
2022-12-27T20:26:25.312Z,8.35
2022-12-27T20:28:52.673Z,8.48
2022-12-27T20:31:20.459Z,8.55
2022-12-27T20:33:54.717Z,8.48
2022-12-27T20:36:22.505Z,9.48
2022-12-27T20:38:49.740Z,7.63
2022-12-27T20:41:18.261Z,7.95
2022-12-27T20:43:45.601Z,8.93
2022-12-27T20:46:14.558Z,7.32
2022-12-27T20:48:43.712Z,7.65
2022-12-27T20:51:13.348Z,7.40
2022-12-27T20:53:40.642Z,7.72
2022-12-27T20:56:08.896Z,6.68
2022-12-27T20:58:36.218Z,7.57
2022-12-27T21:01:14.114Z,7.43
2022-12-27T21:03:41.635Z,6.80
2022-12-27T21:06:09.979Z,7.70
2022-12-27T21:08:43.160Z,7.53
2022-12-27T21:11:17.828Z,7.63
2022-12-27T21:13:45.368Z,6.72
2022-12-27T21:16:14.428Z,6.35
2022-12-27T21:18:41.814Z,6.72
2022-12-27T21:21:11.700Z,7.78
2022-12-27T21:23:39.388Z,8.02
2022-12-27T21:26:08.808Z,7.70
2022-12-27T21:28:36.078Z,7.22
2022-12-27T21:31:03.622Z,7.45
2022-12-27T21:33:31.117Z,6.90
2022-12-27T21:36:02.730Z,7.20
2022-12-27T21:38:30.044Z,6.30
2022-12-27T21:41:03.338Z,6.88
2022-12-27T21:43:30.750Z,6.82
2022-12-27T21:45:58.189Z,6.38
2022-12-27T21:48:25.670Z,6.18
2022-12-27T21:50:52.877Z,6.20
2022-12-27T21:53:20.067Z,6.25
2022-12-27T21:55:47.315Z,5.70
2022-12-27T21:58:14.538Z,5.43
2022-12-27T22:00:41.751Z,6.05
2022-12-27T22:03:09.156Z,6.20
2022-12-27T22:05:36.459Z,5.80
2022-12-27T22:08:03.657Z,5.43
2022-12-27T22:10:31.021Z,5.72
2022-12-27T22:12:58.200Z,5.00
2022-12-27T22:15:25.459Z,4.93
2022-12-27T22:17:54.215Z,4.88
2022-12-27T22:20:21.437Z,5.03
2022-12-27T22:22:48.636Z,5.38
2022-12-27T22:25:15.912Z,5.47
2022-12-27T22:27:43.100Z,4.82
2022-12-27T22:30:12.035Z,5.47
2022-12-27T22:32:39.245Z,5.10
2022-12-27T22:35:06.612Z,5.50
2022-12-27T22:37:33.826Z,4.72
2022-12-27T22:40:01.127Z,4.80
2022-12-27T22:42:28.368Z,4.78
2022-12-27T22:44:55.552Z,4.80
2022-12-27T22:47:27.722Z,5.50
2022-12-27T22:49:55.515Z,4.90
2022-12-27T22:52:22.696Z,5.13
2022-12-27T22:55:04.258Z,4.85
2022-12-27T22:57:34.073Z,5.47
2022-12-27T23:00:01.269Z,6.00
2022-12-27T23:02:28.528Z,5.78
2022-12-27T23:04:55.874Z,5.50
2022-12-27T23:08:04.220Z,5.53
2022-12-27T23:10:10.473Z,4.65
2022-12-27T23:12:37.711Z,5.03
2022-12-27T23:15:05.330Z,4.38
2022-12-27T23:17:32.520Z,5.60
2022-12-27T23:19:59.709Z,5.78
2022-12-27T23:22:26.888Z,6.10
2022-12-27T23:24:54.100Z,5.90
2022-12-27T23:27:21.292Z,6.03
2022-12-27T23:29:48.472Z,6.53
2022-12-27T23:32:15.648Z,6.22
2022-12-27T23:34:42.832Z,4.38
2022-12-27T23:37:10.036Z,4.57
2022-12-27T23:39:37.217Z,4.93
2022-12-27T23:42:04.433Z,3.35
2022-12-27T23:44:33.357Z,3.40
2022-12-27T23:47:05.204Z,3.22
2022-12-27T23:49:32.999Z,3.45
2022-12-27T23:52:00.214Z,3.40
2022-12-27T23:54:27.411Z,3.55
2022-12-27T23:56:54.644Z,3.05
2022-12-27T23:59:21.904Z,3.72
